Carmichael, CA (95608)

2:20 PM PST on December 04, 2016 (GMT -0800)
Fallen Oaks | | Change Station

Elev 131 ft 38.65 °N, 121.33 °W | Updated 16 seconds ago

Clear
Clear
57.6 °F
Feels Like 57.6 °F
N
1.8
Wind Variable Wind from NNE
Gusts 2.5 mph

Today
High -- | Low -- °F
--% Chance of Precip.
Yesterday
High -- | Low -- °F
Precip. -- in
Pressure 30.14 in
Visibility 8.0 miles
Clouds Clear
Dew Point 41 °F
Humidity 54%
Rainfall in
Snow Depth Not available.
7:07 AM 4:43 PM
Waxing Crescent, 26% visible
METAR KMCC 042215Z AUTO 00000KT 8SM CLR 13/05 A3014 RMK AO2
Pressure 30.14 in
Visibility 8.0 miles
Clouds Clear
Dew Point 41 °F
Humidity 54%
Rainfall in
Snow Depth Not available.
7:07 AM 4:43 PM
Waxing Crescent, 26% visible
METAR KMCC 042215Z AUTO 00000KT 8SM CLR 13/05 A3014 RMK AO2

10-Day Weather Forecast

Almanac

Astronomy

Dec. 04, 2016 Rise Set
Actual Time
Civil Twilight
Nautical Twilight
Astronomical Twilight
Moon
Length of Visible Light
Length of Day
Tomorrow will be .
, % of the Moon is Illuminated

Today's Extremes

State Highs State Lows

Community

WunderPhotos

Upload Photos

1,955,683 photos uploaded!

WunderBlog® & News

Nearby

Air Quality

  Air Quality AQ Index Pollutant
Not available.

Snow Depth

Station Depth Elevation

Earthquake Activity

City Distance Mag. Time & Date
Minimum magnitude displayed is 2.5.

Coastal Water Temperatures

Place Temperature

Stations

Nearby Weather Stations

Station Location Temp. Windchill Dew Point Humidity Wind Precip. Elev Updated Type
                   

Watches & Warnings

There are currently no watches in effect.